Weather History for Rickenbacker, OH

Change the Weather History Date:

Wednesday, February 12, 2014

  Actual Average Record
Temperature  
Mean Temperature 16 °F -  
Max Temperature 30 °F 40 °F 69 °F (1999)
Min Temperature 1 °F 25 °F 1 °F (2014)
Degree Days  
Heating Degree Days 50    
Moisture  
Dew Point 2 °F    
Average Humidity 59    
Maximum Humidity 76    
Minimum Humidity 40    
Precipitation  
Precipitation 0.00 in - - ()
Sea Level Pressure  
Sea Level Pressure 30.22 in    
Wind  
Wind Speed 7 mph (NE)    
Max Wind Speed 10 mph    
Max Gust Speed -    
Visibility 10 miles    
Events      
Averages and records for this station are not official NWS values.
T = Trace of Precipitation, MM = Missing Value Source: NWS Daily Summary

Daily Weather History Graph

Daily Weather History Graph

Search for Another Location

Airport:

Trip Planner

Search our weather history database for the weather conditions in past years. The results will help you decide how hot, cold, wet, or windy it might be!

Date:

Astronomy

Feb. 12, 2014 Rise Set
Actual Time 7:27 AM EST 6:04 PM EST
Civil Twilight 7:00 AM EST 6:32 PM EST
Nautical Twilight 6:28 AM EST 7:04 PM EST
Astronomical Twilight 5:57 AM EST 7:35 PM EST
Moon 4:17 PM EST (2/12) 5:44 AM EST (2/12)
Length of Visible Light 11h 32m
Length of Day
10h 36m
Waxing Gibbous, 95% of the Moon is Illuminated
Feb 12
Waxing Gibbous
Feb 14
Full
Feb 22
Last Quarter
Mar 1
New
Mar 8
First Quarter

Hourly Weather History & Observations

Time (EST) Temp. Windchill Dew Point Humidity Pressure Visibility Wind Dir Wind Speed Gust Speed Precip Events Conditions
12:15 AM 5.2 °F -6.7 °F -2.9 °F 69% 30.39 in 10.0 mi NE 6.9 mph - N/A   Clear
12:35 AM 3.6 °F - -3.6 °F 72% 30.41 in 10.0 mi Calm Calm - N/A   Clear
12:55 AM 5.0 °F -4.1 °F -1.8 °F 73% 30.40 in 10.0 mi NNE 4.6 mph - N/A   Clear
1:15 AM 5.2 °F -5.4 °F -2.4 °F 71% 30.39 in 10.0 mi NNE 5.8 mph - N/A   Clear
1:35 AM 5.4 °F -3.6 °F -2.4 °F 70% 30.39 in 10.0 mi NNE 4.6 mph - N/A   Clear
1:55 AM 5.9 °F -4.5 °F -2.0 °F 70% 30.40 in 10.0 mi NNE 5.8 mph - N/A   Clear
2:15 AM 5.7 °F -4.8 °F -2.2 °F 70% 30.39 in 10.0 mi NE 5.8 mph - N/A   Clear
2:35 AM 5.4 °F -3.6 °F -2.4 °F 70% 30.38 in 10.0 mi NNE 4.6 mph - N/A   Clear
2:55 AM 4.8 °F -4.3 °F -2.6 °F 72% 30.38 in 10.0 mi NNE 4.6 mph - N/A   Clear
3:15 AM 4.5 °F -7.6 °F -2.9 °F 72% 30.38 in 10.0 mi NNE 6.9 mph - N/A   Clear
3:35 AM 4.3 °F -6.5 °F -2.9 °F 72% 30.38 in 10.0 mi NNE 5.8 mph - N/A   Clear
3:55 AM 3.6 °F -8.7 °F -3.5 °F 73% 30.37 in 10.0 mi NNE 6.9 mph - N/A   Clear
4:15 AM 3.0 °F -11.5 °F -3.8 °F 73% 30.36 in 10.0 mi NNE 9.2 mph - N/A   Clear
4:35 AM 2.8 °F -12.7 °F -4.0 °F 73% 30.34 in 10.0 mi NNE 10.4 mph - N/A   Clear
4:55 AM 2.1 °F -11.6 °F -4.4 °F 74% 30.34 in 10.0 mi NNE 8.1 mph - N/A   Clear
5:15 AM 1.6 °F -11.0 °F -4.4 °F 76% 30.34 in 10.0 mi NNE 6.9 mph - N/A   Clear
5:35 AM 1.9 °F -12.9 °F -4.0 °F 76% 30.33 in 10.0 mi NNE 9.2 mph - N/A   Clear
5:55 AM 2.1 °F -11.6 °F -4.0 °F 76% 30.33 in 10.0 mi NNE 8.1 mph - N/A   Clear
6:15 AM 2.5 °F -8.6 °F -3.8 °F 75% 30.33 in 10.0 mi NNE 5.8 mph - N/A   Clear
6:35 AM 3.0 °F -8.0 °F -3.5 °F 74% 30.33 in 10.0 mi NNE 5.8 mph - N/A   Clear
6:55 AM 2.1 °F -11.6 °F -4.0 °F 76% 30.32 in 10.0 mi NNE 8.1 mph - N/A   Clear
7:15 AM 2.1 °F -13.6 °F -4.0 °F 76% 30.31 in 10.0 mi NNE 10.4 mph - N/A   Clear
7:35 AM 2.1 °F -11.6 °F -4.4 °F 74% 30.31 in 10.0 mi NE 8.1 mph - N/A   Clear
7:55 AM 1.0 °F -14.0 °F -5.1 °F 75% 30.31 in 10.0 mi NNE 9.2 mph - N/A   Clear
8:15 AM 2.1 °F -13.6 °F -4.0 °F 76% 30.30 in 10.0 mi NNE 10.4 mph - N/A   Clear
8:35 AM 3.0 °F -12.5 °F -3.5 °F 74% 30.29 in 10.0 mi NNE 10.4 mph - N/A   Clear
8:55 AM 3.9 °F -8.2 °F -3.3 °F 72% 30.29 in 10.0 mi North 6.9 mph - N/A   Clear
9:15 AM 4.6 °F -6.0 °F -3.1 °F 70% 30.31 in 10.0 mi NNE 5.8 mph - N/A   Clear
9:35 AM 5.7 °F -7.2 °F -2.2 °F 70% 30.30 in 10.0 mi NNE 8.1 mph - N/A   Clear
9:55 AM 7.0 °F -4.5 °F -1.1 °F 69% 30.28 in 10.0 mi NE 6.9 mph - N/A   Clear
10:15 AM 10.0 °F -0.9 °F 1.0 °F 67% 30.29 in 10.0 mi ENE 6.9 mph - N/A   Clear
10:35 AM 13.3 °F 4.2 °F 2.1 °F 61% 30.29 in 10.0 mi ENE 5.8 mph - N/A   Clear
10:55 AM 14.9 °F 7.5 °F 2.7 °F 58% 30.28 in 10.0 mi NE 4.6 mph - N/A   Clear
11:15 AM 16.2 °F 6.5 °F 3.6 °F 58% 30.27 in 10.0 mi NE 6.9 mph - N/A   Clear
11:35 AM 17.6 °F 8.2 °F 4.6 °F 57% 30.27 in 10.0 mi NE 6.9 mph - N/A   Clear
11:55 AM 19.4 °F 10.4 °F 5.2 °F 54% 30.26 in 10.0 mi NE 6.9 mph - N/A   Clear
12:15 PM 20.8 °F 14.4 °F 5.4 °F 51% 30.24 in 10.0 mi NE 4.6 mph - N/A   Clear
12:35 PM 22.3 °F 13.0 °F 5.5 °F 49% 30.23 in 10.0 mi NNE 8.1 mph - N/A   Clear
12:55 PM 23.7 °F 14.0 °F 6.4 °F 48% 30.21 in 10.0 mi NE 9.2 mph - N/A   Clear
1:15 PM 25.2 °F 15.7 °F 5.9 °F 44% 30.19 in 10.0 mi ENE 9.2 mph - N/A   Clear
1:35 PM 25.9 °F 16.0 °F 5.9 °F 43% 30.18 in 10.0 mi ENE 10.4 mph - N/A   Clear
1:55 PM 27.0 °F 17.3 °F 6.3 °F 42% 30.16 in 10.0 mi ENE 10.4 mph - N/A   Clear
2:15 PM 27.9 °F 18.4 °F 7.3 °F 42% 30.13 in 10.0 mi ENE 10.4 mph - N/A   Clear
2:35 PM 28.6 °F 19.9 °F 6.8 °F 40% 30.13 in 10.0 mi ENE 9.2 mph - N/A   Clear
2:55 PM 28.9 °F 21.1 °F 7.2 °F 40% 30.12 in 10.0 mi ENE 8.1 mph - N/A   Clear
3:15 PM 29.1 °F 21.3 °F 8.1 °F 41% 30.10 in 10.0 mi ENE 8.1 mph - N/A   Clear
3:35 PM 29.5 °F 23.4 °F 8.2 °F 41% 30.09 in 10.0 mi NE 5.8 mph - N/A   Clear
3:55 PM 29.8 °F 22.2 °F 8.1 °F 40% 30.10 in 10.0 mi ENE 8.1 mph - N/A   Clear
4:15 PM 30.0 °F 22.4 °F 8.4 °F 40% 30.09 in 10.0 mi ENE 8.1 mph - N/A   Clear
4:35 PM 30.0 °F 22.4 °F 9.5 °F 42% 30.08 in 10.0 mi NE 8.1 mph - N/A   Clear
4:55 PM 29.5 °F 21.8 °F 9.9 °F 44% 30.06 in 10.0 mi ENE 8.1 mph - N/A   Clear
5:15 PM 29.5 °F 23.4 °F 8.8 °F 42% 30.06 in 10.0 mi NE 5.8 mph - N/A   Clear
5:35 PM 27.5 °F 20.2 °F 8.8 °F 45% 30.07 in 10.0 mi ENE 6.9 mph - N/A   Clear
5:55 PM 28.0 °F 20.8 °F 7.2 °F 41% 30.07 in 10.0 mi ENE 6.9 mph - N/A   Clear
6:15 PM 27.0 °F 19.5 °F 7.0 °F 43% 30.08 in 10.0 mi NE 6.9 mph - N/A   Clear
6:35 PM 25.7 °F 19.0 °F 7.9 °F 47% 30.08 in 10.0 mi NNE 5.8 mph - N/A   Clear
6:55 PM 26.8 °F 21.4 °F 7.5 °F 44% 30.09 in 10.0 mi NNE 4.6 mph - N/A   Clear
7:15 PM 24.8 °F 16.9 °F 7.3 °F 48% 30.08 in 10.0 mi NE 6.9 mph - N/A   Clear
7:35 PM 25.0 °F 18.1 °F 7.3 °F 47% 30.08 in 10.0 mi NNE 5.8 mph - N/A   Clear
7:55 PM 25.2 °F 17.3 °F 7.5 °F 47% 30.07 in 10.0 mi NNE 6.9 mph - N/A   Clear
8:15 PM 23.7 °F 14.7 °F 7.2 °F 49% 30.07 in 10.0 mi NE 8.1 mph - N/A   Clear
8:35 PM 22.5 °F 14.1 °F 6.8 °F 51% 30.06 in 10.0 mi NE 6.9 mph - N/A   Clear
8:55 PM 22.6 °F 14.3 °F 7.2 °F 52% 30.06 in 10.0 mi NNE 6.9 mph - N/A   Clear
9:15 PM 24.4 °F 18.6 °F 7.3 °F 48% 30.07 in 10.0 mi NNE 4.6 mph - N/A   Clear
9:35 PM 23.2 °F 16.0 °F 7.2 °F 50% 30.07 in 10.0 mi NNE 5.8 mph - N/A   Clear
9:55 PM 21.6 °F 15.3 °F 6.3 °F 52% 30.07 in 10.0 mi ENE 4.6 mph - N/A   Clear
10:15 PM 20.1 °F 13.6 °F 5.7 °F 54% 30.07 in 10.0 mi NE 4.6 mph - N/A   Clear
10:35 PM 21.7 °F 13.2 °F 6.6 °F 52% 30.06 in 10.0 mi NNE 6.9 mph - N/A   Clear
10:55 PM 20.8 °F 13.2 °F 6.6 °F 54% 30.06 in 10.0 mi NE 5.8 mph - N/A   Clear
11:15 PM 19.6 °F 9.7 °F 6.1 °F 56% 30.04 in 10.0 mi NE 8.1 mph - N/A   Clear
11:35 PM 19.2 °F 9.3 °F 6.6 °F 58% 30.02 in 10.0 mi NNE 8.1 mph - N/A   Clear
11:55 PM 21.0 °F 12.4 °F 6.8 °F 54% 30.01 in 10.0 mi NNE 6.9 mph - N/A   Clear